sensor_id;sensor_type;location;lat;lon;timestamp;temperature;humidity
37356;DHT22;48747;50.250;18.848;2023-05-10T00:01:22;9.00;90.30
37356;DHT22;48747;50.250;18.848;2023-05-10T00:03:27;9.00;90.80
37356;DHT22;48747;50.250;18.848;2023-05-10T00:05:31;9.10;90.30
37356;DHT22;48747;50.250;18.848;2023-05-10T00:07:34;9.10;90.50
37356;DHT22;48747;50.250;18.848;2023-05-10T00:09:48;9.10;90.30
37356;DHT22;48747;50.250;18.848;2023-05-10T00:11:44;9.10;90.00
37356;DHT22;48747;50.250;18.848;2023-05-10T00:13:48;9.10;90.40
37356;DHT22;48747;50.250;18.848;2023-05-10T00:15:51;9.00;90.70
37356;DHT22;48747;50.250;18.848;2023-05-10T00:17:54;9.00;90.50
37356;DHT22;48747;50.250;18.848;2023-05-10T00:19:57;9.00;91.10
37356;DHT22;48747;50.250;18.848;2023-05-10T00:22:00;9.00;90.60
37356;DHT22;48747;50.250;18.848;2023-05-10T00:24:05;9.00;91.10
37356;DHT22;48747;50.250;18.848;2023-05-10T00:26:08;9.00;91.40
37356;DHT22;48747;50.250;18.848;2023-05-10T00:28:11;9.00;90.60
37356;DHT22;48747;50.250;18.848;2023-05-10T00:30:15;9.00;90.80
37356;DHT22;48747;50.250;18.848;2023-05-10T00:32:23;9.00;90.70
37356;DHT22;48747;50.250;18.848;2023-05-10T00:34:22;9.00;90.70
37356;DHT22;48747;50.250;18.848;2023-05-10T00:36:26;8.90;91.30
37356;DHT22;48747;50.250;18.848;2023-05-10T00:38:33;8.90;91.30
37356;DHT22;48747;50.250;18.848;2023-05-10T00:40:36;8.90;91.90
37356;DHT22;48747;50.250;18.848;2023-05-10T00:42:41;8.90;91.60
37356;DHT22;48747;50.250;18.848;2023-05-10T00:44:46;8.90;91.50
37356;DHT22;48747;50.250;18.848;2023-05-10T00:46:55;8.90;91.30
37356;DHT22;48747;50.250;18.848;2023-05-10T00:48:59;8.90;92.80
37356;DHT22;48747;50.250;18.848;2023-05-10T00:51:04;8.80;91.90
37356;DHT22;48747;50.250;18.848;2023-05-10T00:53:07;8.80;92.40
37356;DHT22;48747;50.250;18.848;2023-05-10T00:55:12;8.80;92.10
37356;DHT22;48747;50.250;18.848;2023-05-10T00:57:15;8.70;92.50
37356;DHT22;48747;50.250;18.848;2023-05-10T00:59:19;8.60;92.80
37356;DHT22;48747;50.250;18.848;2023-05-10T01:01:22;8.60;93.00
37356;DHT22;48747;50.250;18.848;2023-05-10T01:03:25;8.50;93.60
37356;DHT22;48747;50.250;18.848;2023-05-10T01:05:28;8.50;93.70
37356;DHT22;48747;50.250;18.848;2023-05-10T01:07:32;8.50;93.70
37356;DHT22;48747;50.250;18.848;2023-05-10T01:09:39;8.40;93.80
37356;DHT22;48747;50.250;18.848;2023-05-10T01:11:42;8.30;94.00
37356;DHT22;48747;50.250;18.848;2023-05-10T01:13:49;8.40;94.60
37356;DHT22;48747;50.250;18.848;2023-05-10T01:15:53;8.40;95.00
37356;DHT22;48747;50.250;18.848;2023-05-10T01:17:57;8.40;95.30
37356;DHT22;48747;50.250;18.848;2023-05-10T01:20:01;8.30;95.00
37356;DHT22;48747;50.250;18.848;2023-05-10T01:27:13;8.30;95.30
37356;DHT22;48747;50.250;18.848;2023-05-10T01:34:25;8.30;96.20
37356;DHT22;48747;50.250;18.848;2023-05-10T01:36:49;8.30;96.30
37356;DHT22;48747;50.250;18.848;2023-05-10T01:39:11;8.20;95.70
37356;DHT22;48747;50.250;18.848;2023-05-10T01:43:22;8.20;96.10
37356;DHT22;48747;50.250;18.848;2023-05-10T01:48:10;8.20;96.20
37356;DHT22;48747;50.250;18.848;2023-05-10T01:50:18;8.20;96.70
37356;DHT22;48747;50.250;18.848;2023-05-10T01:52:26;8.20;96.90
37356;DHT22;48747;50.250;18.848;2023-05-10T01:54:31;8.20;96.20
37356;DHT22;48747;50.250;18.848;2023-05-10T01:56:37;8.20;96.40
37356;DHT22;48747;50.250;18.848;2023-05-10T01:58:44;8.10;96.50
37356;DHT22;48747;50.250;18.848;2023-05-10T02:00:50;8.10;96.70
37356;DHT22;48747;50.250;18.848;2023-05-10T02:02:55;8.10;96.40
37356;DHT22;48747;50.250;18.848;2023-05-10T02:04:59;8.00;97.00
37356;DHT22;48747;50.250;18.848;2023-05-10T02:07:04;8.00;97.00
37356;DHT22;48747;50.250;18.848;2023-05-10T02:09:10;8.00;97.80
37356;DHT22;48747;50.250;18.848;2023-05-10T02:11:20;8.00;97.30
37356;DHT22;48747;50.250;18.848;2023-05-10T02:13:19;8.00;97.00
37356;DHT22;48747;50.250;18.848;2023-05-10T02:15:23;8.00;97.20
37356;DHT22;48747;50.250;18.848;2023-05-10T02:17:28;8.00;97.60
37356;DHT22;48747;50.250;18.848;2023-05-10T02:19:38;8.10;96.60
37356;DHT22;48747;50.250;18.848;2023-05-10T02:21:39;8.10;96.50
37356;DHT22;48747;50.250;18.848;2023-05-10T02:23:43;8.00;96.80
37356;DHT22;48747;50.250;18.848;2023-05-10T02:25:48;8.10;97.20
37356;DHT22;48747;50.250;18.848;2023-05-10T02:27:53;8.10;97.20
37356;DHT22;48747;50.250;18.848;2023-05-10T02:29:58;8.10;97.00
37356;DHT22;48747;50.250;18.848;2023-05-10T02:32:04;8.10;98.00
37356;DHT22;48747;50.250;18.848;2023-05-10T02:34:09;8.10;97.30
37356;DHT22;48747;50.250;18.848;2023-05-10T02:36:14;8.10;97.30
37356;DHT22;48747;50.250;18.848;2023-05-10T02:38:20;8.00;97.20
37356;DHT22;48747;50.250;18.848;2023-05-10T02:40:26;8.00;98.00
37356;DHT22;48747;50.250;18.848;2023-05-10T02:42:33;8.00;97.50
37356;DHT22;48747;50.250;18.848;2023-05-10T02:44:38;7.90;98.10
37356;DHT22;48747;50.250;18.848;2023-05-10T02:46:48;8.00;98.90
37356;DHT22;48747;50.250;18.848;2023-05-10T02:48:49;8.00;98.20
37356;DHT22;48747;50.250;18.848;2023-05-10T02:50:56;8.00;97.60
37356;DHT22;48747;50.250;18.848;2023-05-10T02:53:02;7.90;97.90
37356;DHT22;48747;50.250;18.848;2023-05-10T02:55:05;7.90;97.90
37356;DHT22;48747;50.250;18.848;2023-05-10T02:57:15;7.90;98.40
37356;DHT22;48747;50.250;18.848;2023-05-10T02:59:17;7.90;98.30
37356;DHT22;48747;50.250;18.848;2023-05-10T03:01:22;7.90;98.90
37356;DHT22;48747;50.250;18.848;2023-05-10T03:03:25;7.90;98.40
37356;DHT22;48747;50.250;18.848;2023-05-10T03:05:28;7.90;98.90
37356;DHT22;48747;50.250;18.848;2023-05-10T03:07:34;7.90;98.90
37356;DHT22;48747;50.250;18.848;2023-05-10T03:09:38;7.80;98.70
37356;DHT22;48747;50.250;18.848;2023-05-10T03:11:59;7.80;99.40
37356;DHT22;48747;50.250;18.848;2023-05-10T03:17:04;7.80;99.30
37356;DHT22;48747;50.250;18.848;2023-05-10T03:21:27;7.80;99.20
37356;DHT22;48747;50.250;18.848;2023-05-10T03:23:35;7.80;99.50
37356;DHT22;48747;50.250;18.848;2023-05-10T03:25:39;7.70;99.60
37356;DHT22;48747;50.250;18.848;2023-05-10T03:27:44;7.70;99.90
37356;DHT22;48747;50.250;18.848;2023-05-10T03:29:53;7.70;99.90
37356;DHT22;48747;50.250;18.848;2023-05-10T03:31:55;7.70;99.90
37356;DHT22;48747;50.250;18.848;2023-05-10T03:34:01;7.80;99.90
37356;DHT22;48747;50.250;18.848;2023-05-10T03:36:06;7.70;99.90
37356;DHT22;48747;50.250;18.848;2023-05-10T03:38:09;7.70;99.90
37356;DHT22;48747;50.250;18.848;2023-05-10T03:40:18;7.70;99.90
37356;DHT22;48747;50.250;18.848;2023-05-10T03:42:24;7.70;99.90
37356;DHT22;48747;50.250;18.848;2023-05-10T03:44:29;7.70;99.90
37356;DHT22;48747;50.250;18.848;2023-05-10T03:46:44;7.80;99.90
37356;DHT22;48747;50.250;18.848;2023-05-10T03:48:44;7.80;99.90
37356;DHT22;48747;50.250;18.848;2023-05-10T03:50:47;7.80;99.90
37356;DHT22;48747;50.250;18.848;2023-05-10T03:52:51;7.80;99.90
37356;DHT22;48747;50.250;18.848;2023-05-10T03:55:04;7.80;99.90
37356;DHT22;48747;50.250;18.848;2023-05-10T03:57:00;7.80;99.90
37356;DHT22;48747;50.250;18.848;2023-05-10T03:59:04;7.80;99.90
37356;DHT22;48747;50.250;18.848;2023-05-10T04:01:10;7.80;99.90
37356;DHT22;48747;50.250;18.848;2023-05-10T04:03:14;7.80;99.90
37356;DHT22;48747;50.250;18.848;2023-05-10T04:05:17;8.00;99.90
37356;DHT22;48747;50.250;18.848;2023-05-10T04:07:24;8.20;99.90
37356;DHT22;48747;50.250;18.848;2023-05-10T04:09:25;8.70;98.80
37356;DHT22;48747;50.250;18.848;2023-05-10T04:11:31;9.20;97.30
37356;DHT22;48747;50.250;18.848;2023-05-10T04:13:36;9.60;94.50
37356;DHT22;48747;50.250;18.848;2023-05-10T04:15:39;9.70;92.70
37356;DHT22;48747;50.250;18.848;2023-05-10T04:17:45;9.50;92.80
37356;DHT22;48747;50.250;18.848;2023-05-10T04:19:48;9.30;93.00
37356;DHT22;48747;50.250;18.848;2023-05-10T04:21:53;9.20;93.80
37356;DHT22;48747;50.250;18.848;2023-05-10T04:24:04;9.10;94.40
37356;DHT22;48747;50.250;18.848;2023-05-10T04:26:09;9.00;94.30
37356;DHT22;48747;50.250;18.848;2023-05-10T04:28:12;9.00;94.90
37356;DHT22;48747;50.250;18.848;2023-05-10T04:30:15;8.90;95.30
37356;DHT22;48747;50.250;18.848;2023-05-10T04:32:21;8.80;96.00
37356;DHT22;48747;50.250;18.848;2023-05-10T04:34:25;8.80;96.10
37356;DHT22;48747;50.250;18.848;2023-05-10T04:36:30;8.80;96.50
37356;DHT22;48747;50.250;18.848;2023-05-10T04:38:34;8.90;96.60
37356;DHT22;48747;50.250;18.848;2023-05-10T04:40:42;8.90;96.60
37356;DHT22;48747;50.250;18.848;2023-05-10T04:42:44;8.90;96.20
37356;DHT22;48747;50.250;18.848;2023-05-10T04:44:49;9.00;96.10
37356;DHT22;48747;50.250;18.848;2023-05-10T04:46:53;9.00;96.20
37356;DHT22;48747;50.250;18.848;2023-05-10T04:48:57;9.10;96.60
37356;DHT22;48747;50.250;18.848;2023-05-10T04:51:01;9.20;95.60
37356;DHT22;48747;50.250;18.848;2023-05-10T04:53:05;9.20;96.20
37356;DHT22;48747;50.250;18.848;2023-05-10T04:55:10;9.30;95.10
37356;DHT22;48747;50.250;18.848;2023-05-10T04:57:13;9.20;95.20
37356;DHT22;48747;50.250;18.848;2023-05-10T04:59:16;9.30;95.20
37356;DHT22;48747;50.250;18.848;2023-05-10T05:01:19;9.30;95.30
37356;DHT22;48747;50.250;18.848;2023-05-10T05:03:23;9.40;95.70
37356;DHT22;48747;50.250;18.848;2023-05-10T05:05:26;9.50;95.50
37356;DHT22;48747;50.250;18.848;2023-05-10T05:07:29;9.60;95.10
37356;DHT22;48747;50.250;18.848;2023-05-10T05:09:32;9.70;94.60
37356;DHT22;48747;50.250;18.848;2023-05-10T05:11:41;9.80;94.10
37356;DHT22;48747;50.250;18.848;2023-05-10T05:13:40;9.90;93.40
37356;DHT22;48747;50.250;18.848;2023-05-10T05:15:43;9.90;93.10
37356;DHT22;48747;50.250;18.848;2023-05-10T05:17:46;9.90;93.50
37356;DHT22;48747;50.250;18.848;2023-05-10T05:19:50;10.00;93.10
37356;DHT22;48747;50.250;18.848;2023-05-10T05:21:54;10.00;93.10
37356;DHT22;48747;50.250;18.848;2023-05-10T05:23:59;10.20;92.80
37356;DHT22;48747;50.250;18.848;2023-05-10T05:26:02;10.30;92.60
37356;DHT22;48747;50.250;18.848;2023-05-10T05:28:05;10.40;92.40
37356;DHT22;48747;50.250;18.848;2023-05-10T05:30:10;10.50;92.50
37356;DHT22;48747;50.250;18.848;2023-05-10T05:32:14;10.60;92.20
37356;DHT22;48747;50.250;18.848;2023-05-10T05:34:17;10.70;91.40
37356;DHT22;48747;50.250;18.848;2023-05-10T05:36:22;10.80;90.20
37356;DHT22;48747;50.250;18.848;2023-05-10T05:38:27;10.90;89.80
37356;DHT22;48747;50.250;18.848;2023-05-10T05:40:30;11.00;88.80
37356;DHT22;48747;50.250;18.848;2023-05-10T05:42:33;11.10;88.00
37356;DHT22;48747;50.250;18.848;2023-05-10T05:44:36;11.10;86.70
37356;DHT22;48747;50.250;18.848;2023-05-10T05:46:41;11.20;85.80
37356;DHT22;48747;50.250;18.848;2023-05-10T05:48:46;11.40;85.40
37356;DHT22;48747;50.250;18.848;2023-05-10T05:50:55;11.50;85.40
37356;DHT22;48747;50.250;18.848;2023-05-10T05:53:00;11.60;82.90
37356;DHT22;48747;50.250;18.848;2023-05-10T05:55:03;11.70;82.20
37356;DHT22;48747;50.250;18.848;2023-05-10T05:57:07;11.70;80.00
37356;DHT22;48747;50.250;18.848;2023-05-10T05:59:11;11.80;79.20
37356;DHT22;48747;50.250;18.848;2023-05-10T06:01:15;11.90;79.00
37356;DHT22;48747;50.250;18.848;2023-05-10T06:03:18;12.00;78.10
37356;DHT22;48747;50.250;18.848;2023-05-10T06:05:26;12.10;76.30
37356;DHT22;48747;50.250;18.848;2023-05-10T06:07:29;12.20;76.00
37356;DHT22;48747;50.250;18.848;2023-05-10T06:09:32;12.30;75.10
37356;DHT22;48747;50.250;18.848;2023-05-10T06:11:35;12.30;76.20
37356;DHT22;48747;50.250;18.848;2023-05-10T06:13:42;12.40;75.50
37356;DHT22;48747;50.250;18.848;2023-05-10T06:15:45;12.50;75.80
37356;DHT22;48747;50.250;18.848;2023-05-10T06:17:49;12.60;74.40
37356;DHT22;48747;50.250;18.848;2023-05-10T06:19:52;12.70;74.50
37356;DHT22;48747;50.250;18.848;2023-05-10T06:21:55;12.80;72.00
37356;DHT22;48747;50.250;18.848;2023-05-10T06:23:58;12.80;71.90
37356;DHT22;48747;50.250;18.848;2023-05-10T06:26:03;12.90;71.90
37356;DHT22;48747;50.250;18.848;2023-05-10T06:28:06;13.00;70.90
37356;DHT22;48747;50.250;18.848;2023-05-10T06:30:11;13.10;71.70
37356;DHT22;48747;50.250;18.848;2023-05-10T06:32:16;13.30;72.20
37356;DHT22;48747;50.250;18.848;2023-05-10T06:34:19;13.40;70.30
37356;DHT22;48747;50.250;18.848;2023-05-10T06:36:22;13.50;70.60
37356;DHT22;48747;50.250;18.848;2023-05-10T06:38:27;13.60;69.60
37356;DHT22;48747;50.250;18.848;2023-05-10T06:40:31;13.70;69.50
37356;DHT22;48747;50.250;18.848;2023-05-10T06:42:36;13.80;68.80
37356;DHT22;48747;50.250;18.848;2023-05-10T06:44:39;13.90;68.20
37356;DHT22;48747;50.250;18.848;2023-05-10T06:46:46;14.00;67.30
37356;DHT22;48747;50.250;18.848;2023-05-10T06:48:50;14.10;66.90
37356;DHT22;48747;50.250;18.848;2023-05-10T06:50:55;14.10;65.40
37356;DHT22;48747;50.250;18.848;2023-05-10T06:53:00;14.20;65.80
37356;DHT22;48747;50.250;18.848;2023-05-10T06:55:07;14.30;64.90
37356;DHT22;48747;50.250;18.848;2023-05-10T06:57:12;14.50;66.10
37356;DHT22;48747;50.250;18.848;2023-05-10T06:59:16;14.60;64.30
37356;DHT22;48747;50.250;18.848;2023-05-10T07:01:21;14.70;62.50
37356;DHT22;48747;50.250;18.848;2023-05-10T07:03:24;14.70;64.70
37356;DHT22;48747;50.250;18.848;2023-05-10T07:05:27;14.90;62.90
37356;DHT22;48747;50.250;18.848;2023-05-10T07:07:31;14.90;62.50
37356;DHT22;48747;50.250;18.848;2023-05-10T07:09:34;15.00;60.40
37356;DHT22;48747;50.250;18.848;2023-05-10T07:11:39;15.10;59.20
37356;DHT22;48747;50.250;18.848;2023-05-10T07:13:44;15.10;60.40
37356;DHT22;48747;50.250;18.848;2023-05-10T07:15:51;15.10;59.30
37356;DHT22;48747;50.250;18.848;2023-05-10T07:17:55;15.20;58.50
37356;DHT22;48747;50.250;18.848;2023-05-10T07:19:59;15.30;58.90
37356;DHT22;48747;50.250;18.848;2023-05-10T07:22:02;15.40;58.90
37356;DHT22;48747;50.250;18.848;2023-05-10T07:24:05;15.50;57.50
37356;DHT22;48747;50.250;18.848;2023-05-10T07:26:10;15.60;57.20
37356;DHT22;48747;50.250;18.848;2023-05-10T07:28:14;15.70;57.80
37356;DHT22;48747;50.250;18.848;2023-05-10T07:30:18;15.70;57.40
37356;DHT22;48747;50.250;18.848;2023-05-10T07:32:21;15.80;57.40
37356;DHT22;48747;50.250;18.848;2023-05-10T07:34:25;15.80;57.30
37356;DHT22;48747;50.250;18.848;2023-05-10T07:36:30;15.90;55.80
37356;DHT22;48747;50.250;18.848;2023-05-10T07:38:33;15.90;56.40
37356;DHT22;48747;50.250;18.848;2023-05-10T07:40:38;16.00;57.50
37356;DHT22;48747;50.250;18.848;2023-05-10T07:42:42;16.20;56.30
37356;DHT22;48747;50.250;18.848;2023-05-10T07:44:46;16.20;56.00
37356;DHT22;48747;50.250;18.848;2023-05-10T07:46:50;16.20;55.90
37356;DHT22;48747;50.250;18.848;2023-05-10T07:48:53;16.20;56.20
37356;DHT22;48747;50.250;18.848;2023-05-10T07:50:56;16.30;55.40
37356;DHT22;48747;50.250;18.848;2023-05-10T07:53:02;16.40;55.50
37356;DHT22;48747;50.250;18.848;2023-05-10T07:55:04;16.40;53.50
37356;DHT22;48747;50.250;18.848;2023-05-10T07:57:09;16.40;53.50
37356;DHT22;48747;50.250;18.848;2023-05-10T07:59:17;16.50;54.30
37356;DHT22;48747;50.250;18.848;2023-05-10T08:01:20;16.60;53.60
37356;DHT22;48747;50.250;18.848;2023-05-10T08:03:23;16.60;54.80
37356;DHT22;48747;50.250;18.848;2023-05-10T08:05:28;16.70;53.70
37356;DHT22;48747;50.250;18.848;2023-05-10T08:07:31;16.80;52.00
37356;DHT22;48747;50.250;18.848;2023-05-10T08:09:36;16.80;51.80
37356;DHT22;48747;50.250;18.848;2023-05-10T08:11:43;16.80;51.70
37356;DHT22;48747;50.250;18.848;2023-05-10T08:13:47;16.90;52.30
37356;DHT22;48747;50.250;18.848;2023-05-10T08:15:49;17.00;52.00
37356;DHT22;48747;50.250;18.848;2023-05-10T08:17:54;17.20;52.10
37356;DHT22;48747;50.250;18.848;2023-05-10T08:19:57;17.40;51.90
37356;DHT22;48747;50.250;18.848;2023-05-10T08:22:01;17.40;51.20
37356;DHT22;48747;50.250;18.848;2023-05-10T08:24:06;17.40;51.00
37356;DHT22;48747;50.250;18.848;2023-05-10T08:26:09;17.40;52.20
37356;DHT22;48747;50.250;18.848;2023-05-10T08:28:12;17.40;52.00
37356;DHT22;48747;50.250;18.848;2023-05-10T08:30:17;17.50;52.30
37356;DHT22;48747;50.250;18.848;2023-05-10T08:32:20;17.50;52.20
37356;DHT22;48747;50.250;18.848;2023-05-10T08:34:29;17.70;52.20
37356;DHT22;48747;50.250;18.848;2023-05-10T08:36:30;17.80;51.50
37356;DHT22;48747;50.250;18.848;2023-05-10T08:38:35;17.80;50.60
37356;DHT22;48747;50.250;18.848;2023-05-10T08:40:43;17.70;50.80
37356;DHT22;48747;50.250;18.848;2023-05-10T08:42:51;17.70;50.80
37356;DHT22;48747;50.250;18.848;2023-05-10T08:44:53;17.70;51.00
37356;DHT22;48747;50.250;18.848;2023-05-10T08:46:59;17.70;50.70
37356;DHT22;48747;50.250;18.848;2023-05-10T08:49:04;17.70;50.80
37356;DHT22;48747;50.250;18.848;2023-05-10T08:51:17;17.80;51.10
37356;DHT22;48747;50.250;18.848;2023-05-10T08:53:20;17.80;49.30
37356;DHT22;48747;50.250;18.848;2023-05-10T08:55:24;17.80;50.30
37356;DHT22;48747;50.250;18.848;2023-05-10T08:57:29;17.80;49.70
37356;DHT22;48747;50.250;18.848;2023-05-10T08:59:32;17.90;48.80
37356;DHT22;48747;50.250;18.848;2023-05-10T09:01:38;18.00;49.60
37356;DHT22;48747;50.250;18.848;2023-05-10T09:03:41;18.10;50.40
37356;DHT22;48747;50.250;18.848;2023-05-10T09:05:46;18.10;50.00
37356;DHT22;48747;50.250;18.848;2023-05-10T09:07:52;18.10;49.20
37356;DHT22;48747;50.250;18.848;2023-05-10T09:09:55;18.20;48.40
37356;DHT22;48747;50.250;18.848;2023-05-10T09:12:01;18.20;48.10
37356;DHT22;48747;50.250;18.848;2023-05-10T09:14:06;18.20;49.40
37356;DHT22;48747;50.250;18.848;2023-05-10T09:16:11;18.30;49.60
37356;DHT22;48747;50.250;18.848;2023-05-10T09:18:14;18.40;49.70
37356;DHT22;48747;50.250;18.848;2023-05-10T09:20:19;18.60;48.80
37356;DHT22;48747;50.250;18.848;2023-05-10T09:22:23;18.70;48.20
37356;DHT22;48747;50.250;18.848;2023-05-10T09:24:26;18.70;47.90
37356;DHT22;48747;50.250;18.848;2023-05-10T09:26:31;18.50;47.90
37356;DHT22;48747;50.250;18.848;2023-05-10T09:28:50;18.50;49.00
37356;DHT22;48747;50.250;18.848;2023-05-10T09:30:55;18.50;48.00
37356;DHT22;48747;50.250;18.848;2023-05-10T09:33:04;18.60;48.50
37356;DHT22;48747;50.250;18.848;2023-05-10T09:37:12;18.70;50.50
37356;DHT22;48747;50.250;18.848;2023-05-10T09:39:15;18.90;48.90
37356;DHT22;48747;50.250;18.848;2023-05-10T09:41:22;19.00;47.80
37356;DHT22;48747;50.250;18.848;2023-05-10T09:43:25;19.10;47.20
37356;DHT22;48747;50.250;18.848;2023-05-10T09:45:32;18.90;46.70
37356;DHT22;48747;50.250;18.848;2023-05-10T09:47:37;19.00;48.70
37356;DHT22;48747;50.250;18.848;2023-05-10T09:49:48;19.20;47.10
37356;DHT22;48747;50.250;18.848;2023-05-10T09:52:07;19.30;48.00
37356;DHT22;48747;50.250;18.848;2023-05-10T09:54:12;19.40;47.80
37356;DHT22;48747;50.250;18.848;2023-05-10T09:56:33;19.60;47.80
37356;DHT22;48747;50.250;18.848;2023-05-10T09:58:38;19.70;47.10
37356;DHT22;48747;50.250;18.848;2023-05-10T10:00:45;20.00;48.40
37356;DHT22;48747;50.250;18.848;2023-05-10T10:02:58;20.20;47.20
37356;DHT22;48747;50.250;18.848;2023-05-10T10:05:07;20.20;46.00
37356;DHT22;48747;50.250;18.848;2023-05-10T10:07:12;20.20;46.50
37356;DHT22;48747;50.250;18.848;2023-05-10T10:09:15;20.30;47.30
37356;DHT22;48747;50.250;18.848;2023-05-10T10:11:20;20.20;45.00
37356;DHT22;48747;50.250;18.848;2023-05-10T10:13:23;20.10;47.30
37356;DHT22;48747;50.250;18.848;2023-05-10T10:15:27;20.20;46.20
37356;DHT22;48747;50.250;18.848;2023-05-10T10:17:33;20.30;46.80
37356;DHT22;48747;50.250;18.848;2023-05-10T10:19:44;20.50;48.90
37356;DHT22;48747;50.250;18.848;2023-05-10T10:21:45;20.40;46.80
37356;DHT22;48747;50.250;18.848;2023-05-10T10:23:52;20.50;45.90
37356;DHT22;48747;50.250;18.848;2023-05-10T10:25:55;20.50;45.00
37356;DHT22;48747;50.250;18.848;2023-05-10T10:28:11;20.50;45.70
37356;DHT22;48747;50.250;18.848;2023-05-10T10:30:18;20.60;45.00
37356;DHT22;48747;50.250;18.848;2023-05-10T10:32:35;20.30;45.20
37356;DHT22;48747;50.250;18.848;2023-05-10T10:34:40;20.00;45.40
37356;DHT22;48747;50.250;18.848;2023-05-10T10:36:49;19.70;47.70
37356;DHT22;48747;50.250;18.848;2023-05-10T10:38:54;19.70;47.50
37356;DHT22;48747;50.250;18.848;2023-05-10T10:41:09;19.90;47.30
37356;DHT22;48747;50.250;18.848;2023-05-10T10:43:26;20.20;46.80
37356;DHT22;48747;50.250;18.848;2023-05-10T10:45:33;20.20;46.00
37356;DHT22;48747;50.250;18.848;2023-05-10T10:47:52;19.90;45.60
37356;DHT22;48747;50.250;18.848;2023-05-10T10:52:27;19.60;46.10
37356;DHT22;48747;50.250;18.848;2023-05-10T10:54:36;19.60;49.40
37356;DHT22;48747;50.250;18.848;2023-05-10T10:56:41;19.90;47.10
37356;DHT22;48747;50.250;18.848;2023-05-10T10:58:49;20.20;46.40
37356;DHT22;48747;50.250;18.848;2023-05-10T11:01:08;20.60;46.70
37356;DHT22;48747;50.250;18.848;2023-05-10T11:03:08;21.00;48.40
37356;DHT22;48747;50.250;18.848;2023-05-10T11:07:54;20.90;45.60
37356;DHT22;48747;50.250;18.848;2023-05-10T11:10:03;21.00;45.80
37356;DHT22;48747;50.250;18.848;2023-05-10T11:12:11;21.10;46.40
37356;DHT22;48747;50.250;18.848;2023-05-10T11:14:10;21.10;45.60
37356;DHT22;48747;50.250;18.848;2023-05-10T11:16:21;21.30;46.20
37356;DHT22;48747;50.250;18.848;2023-05-10T11:18:28;21.40;46.90
37356;DHT22;48747;50.250;18.848;2023-05-10T11:20:39;21.50;46.10
37356;DHT22;48747;50.250;18.848;2023-05-10T11:22:52;21.50;46.20
37356;DHT22;48747;50.250;18.848;2023-05-10T11:24:57;21.20;44.10
37356;DHT22;48747;50.250;18.848;2023-05-10T11:27:03;20.70;44.80
37356;DHT22;48747;50.250;18.848;2023-05-10T11:29:06;20.60;45.30
37356;DHT22;48747;50.250;18.848;2023-05-10T11:31:15;20.60;45.40
37356;DHT22;48747;50.250;18.848;2023-05-10T11:33:20;20.70;44.90
37356;DHT22;48747;50.250;18.848;2023-05-10T11:35:23;20.80;45.50
37356;DHT22;48747;50.250;18.848;2023-05-10T11:37:28;20.90;45.20
37356;DHT22;48747;50.250;18.848;2023-05-10T11:39:37;21.00;44.00
37356;DHT22;48747;50.250;18.848;2023-05-10T11:41:37;21.00;44.40
37356;DHT22;48747;50.250;18.848;2023-05-10T11:43:42;21.00;45.10
37356;DHT22;48747;50.250;18.848;2023-05-10T11:45:45;21.30;45.10
37356;DHT22;48747;50.250;18.848;2023-05-10T11:47:54;21.40;44.00
37356;DHT22;48747;50.250;18.848;2023-05-10T11:49:59;21.30;46.20
37356;DHT22;48747;50.250;18.848;2023-05-10T11:52:07;21.60;45.30
37356;DHT22;48747;50.250;18.848;2023-05-10T11:54:12;21.80;43.70
37356;DHT22;48747;50.250;18.848;2023-05-10T11:56:17;21.90;44.10
37356;DHT22;48747;50.250;18.848;2023-05-10T11:58:20;21.90;44.00
37356;DHT22;48747;50.250;18.848;2023-05-10T12:00:38;21.80;43.10
37356;DHT22;48747;50.250;18.848;2023-05-10T12:02:31;21.70;43.50
37356;DHT22;48747;50.250;18.848;2023-05-10T12:04:34;21.60;43.50
37356;DHT22;48747;50.250;18.848;2023-05-10T12:06:39;21.70;43.80
37356;DHT22;48747;50.250;18.848;2023-05-10T12:08:47;21.90;46.50
37356;DHT22;48747;50.250;18.848;2023-05-10T12:11:03;22.10;43.30
37356;DHT22;48747;50.250;18.848;2023-05-10T12:12:58;22.20;42.60
37356;DHT22;48747;50.250;18.848;2023-05-10T12:15:02;22.10;42.70
37356;DHT22;48747;50.250;18.848;2023-05-10T12:17:05;22.00;43.30
37356;DHT22;48747;50.250;18.848;2023-05-10T12:19:11;22.10;43.20
37356;DHT22;48747;50.250;18.848;2023-05-10T12:21:15;22.30;43.70
37356;DHT22;48747;50.250;18.848;2023-05-10T12:23:23;22.50;44.00
37356;DHT22;48747;50.250;18.848;2023-05-10T12:25:41;22.70;42.60
37356;DHT22;48747;50.250;18.848;2023-05-10T12:27:32;22.90;41.60
37356;DHT22;48747;50.250;18.848;2023-05-10T12:29:37;22.70;41.90
37356;DHT22;48747;50.250;18.848;2023-05-10T12:31:54;22.70;42.90
37356;DHT22;48747;50.250;18.848;2023-05-10T12:33:59;22.80;43.20
37356;DHT22;48747;50.250;18.848;2023-05-10T12:36:02;23.00;42.90
37356;DHT22;48747;50.250;18.848;2023-05-10T12:38:23;23.00;41.70
37356;DHT22;48747;50.250;18.848;2023-05-10T12:40:12;22.90;41.30
37356;DHT22;48747;50.250;18.848;2023-05-10T12:42:15;22.70;42.70
37356;DHT22;48747;50.250;18.848;2023-05-10T12:44:19;22.80;41.20
37356;DHT22;48747;50.250;18.848;2023-05-10T12:46:25;22.80;42.30
37356;DHT22;48747;50.250;18.848;2023-05-10T12:48:28;22.80;41.80
37356;DHT22;48747;50.250;18.848;2023-05-10T12:50:35;22.80;40.90
37356;DHT22;48747;50.250;18.848;2023-05-10T12:52:40;22.80;42.70
37356;DHT22;48747;50.250;18.848;2023-05-10T12:54:43;23.20;42.30
37356;DHT22;48747;50.250;18.848;2023-05-10T12:56:47;23.20;42.20
37356;DHT22;48747;50.250;18.848;2023-05-10T12:58:55;23.40;41.40
37356;DHT22;48747;50.250;18.848;2023-05-10T13:00:54;23.50;40.10
37356;DHT22;48747;50.250;18.848;2023-05-10T13:03:02;23.60;41.90
37356;DHT22;48747;50.250;18.848;2023-05-10T13:05:05;23.70;40.20
37356;DHT22;48747;50.250;18.848;2023-05-10T13:07:09;23.80;39.40
37356;DHT22;48747;50.250;18.848;2023-05-10T13:09:12;23.50;40.40
37356;DHT22;48747;50.250;18.848;2023-05-10T13:11:21;23.50;40.90
37356;DHT22;48747;50.250;18.848;2023-05-10T13:13:22;23.50;40.10
37356;DHT22;48747;50.250;18.848;2023-05-10T13:15:27;23.70;40.90
37356;DHT22;48747;50.250;18.848;2023-05-10T13:17:30;23.70;40.60
37356;DHT22;48747;50.250;18.848;2023-05-10T13:19:33;23.60;40.40
37356;DHT22;48747;50.250;18.848;2023-05-10T13:21:37;23.70;40.50
37356;DHT22;48747;50.250;18.848;2023-05-10T13:23:42;23.90;41.20
37356;DHT22;48747;50.250;18.848;2023-05-10T13:25:50;24.10;39.60
37356;DHT22;48747;50.250;18.848;2023-05-10T13:27:50;24.10;39.90
37356;DHT22;48747;50.250;18.848;2023-05-10T13:29:54;24.10;41.30
37356;DHT22;48747;50.250;18.848;2023-05-10T13:31:58;23.90;39.00